Mendoza, Texas
Current Conditions -  °F | °C
As of 9:15 PM on Monday 26 Jan 2015 (Local Time) from KHYI Reporting Station
Clear Clear  
Wind Chill: 54°   Ceiling: Unl
Heat Index: 54°   Visibility: 10mi
Dew Point: 43°   Wind: 0mph
Humidity: 67%   Direction: NA
Pressure: 30.19"   Gusts: NA
Location:  29.8965°N, 97.6713°W
Report Text: KHYI 270315Z 00000KT 10SM CLR 12/06 A3019 RMK AO1
Loading
Personal Weather Stations






























Interactive Weather Map New forecast layout! Learn more

10-Day Weather Forecast

Advertisements
Track Severe Weather on mobile